首页
METAR-TAF:

METAR-TAF

机场 :

佬沃國際機場

佬沃, 菲律宾

纬度: 18-11N, 经度: 120-32E, 海拔: 4米

当前天气观测

该预报发布于25分钟前的04:00 UTC
风速12节,风向南转西南
温度 34°C
湿度 63%
气压 1005 hPa
能见度10公里或以上
少量云层高于1700英尺, 积雨云.
散云层高于28000英尺

METAR: RPLI 280400Z 21012KT 9999 FEW017CB SCT280 34/26 Q1005 NOSIG RMK A2968, CB SW/NW

时间: 12:25 (04:25 UTC)

预报

该预报发布于5小时和25分钟前的23:00 UTC
预报有效从28日的 00点(UTC)到 28日的 24点(UTC)
风速10节,风向南转西南
能见度10公里或以上
少量云层高于1800英尺
多云层高于10000英尺
短暂存在
从 28日的 03点(UTC)到 28日的 09点(UTC)
风速10节,风向西南,有时为20节阵风
能見度: 7000
少量云层高于1700英尺, 积雨云.
多云层高于2000英尺
附近有雷暴, 阵雨
短暂存在
从 28日的 18点(UTC)到 28日的 24点(UTC)
风速10节,风向南转西南
能見度: 5000
散云层高于1700英尺, 积雨云.
散云层高于1800英尺
多云层高于8000英尺
雷暴, 阵雨,

TAF: RPLI 272300Z 2800/2824 20010KT 9999 FEW018 BKN100 TEMPO 2803/2809 22010G20KT 7000 VCTS SHRA FEW017CB BKN020 TEMPO 2818/2824 20010KT 5000 TS SHRA SCT017CB SCT018 BKN080

超过4000个机场的气象观测和天气预报(METAR&TAF报告)。

可查询的气象台以黄色和红色小点在地图上表示。

将鼠标移到小点上方,可查看气象台名称。

然后点击查看天气观测和预报。

如需切换地图:点击带黑十字的绿色按钮放大地图;点击带横线的绿色按钮缩小地图;或者点击绿色箭头查看邻近地区的地图。


METAR-TAF: